sensor_id;sensor_type;location;lat;lon;timestamp;pressure;altitude;pressure_sealevel;temperature;humidity
44872;BME280;30602;51.060;17.226;2023-06-10T00:01:15;101387.40;;;16.04;100.00
44872;BME280;30602;51.060;17.226;2023-06-10T00:04:48;101391.29;;;16.03;100.00
44872;BME280;30602;51.060;17.226;2023-06-10T00:08:38;101391.52;;;16.01;100.00
44872;BME280;30602;51.060;17.226;2023-06-10T00:12:27;101393.08;;;15.99;100.00
44872;BME280;30602;51.060;17.226;2023-06-10T00:16:00;101390.00;;;16.06;100.00
44872;BME280;30602;51.060;17.226;2023-06-10T00:19:37;101388.64;;;15.97;100.00
44872;BME280;30602;51.060;17.226;2023-06-10T00:23:07;101386.46;;;15.93;100.00
44872;BME280;30602;51.060;17.226;2023-06-10T00:27:30;101386.57;;;15.97;100.00
44872;BME280;30602;51.060;17.226;2023-06-10T00:31:02;101385.01;;;15.99;100.00
44872;BME280;30602;51.060;17.226;2023-06-10T00:35:04;101383.67;;;15.94;100.00
44872;BME280;30602;51.060;17.226;2023-06-10T00:38:51;101386.11;;;15.87;100.00
44872;BME280;30602;51.060;17.226;2023-06-10T00:42:34;101385.97;;;15.94;100.00
44872;BME280;30602;51.060;17.226;2023-06-10T00:45:58;101391.55;;;15.93;100.00
44872;BME280;30602;51.060;17.226;2023-06-10T00:53:53;101389.94;;;15.97;100.00
44872;BME280;30602;51.060;17.226;2023-06-10T00:57:32;101394.88;;;15.96;100.00
44872;BME280;30602;51.060;17.226;2023-06-10T01:01:09;101403.71;;;16.07;100.00
44872;BME280;30602;51.060;17.226;2023-06-10T01:04:51;101387.76;;;15.98;100.00
44872;BME280;30602;51.060;17.226;2023-06-10T01:12:39;101380.20;;;15.95;100.00
44872;BME280;30602;51.060;17.226;2023-06-10T01:16:05;101376.54;;;15.95;100.00
44872;BME280;30602;51.060;17.226;2023-06-10T01:19:37;101381.31;;;15.99;100.00
44872;BME280;30602;51.060;17.226;2023-06-10T01:23:22;101375.82;;;15.97;100.00
44872;BME280;30602;51.060;17.226;2023-06-10T01:27:08;101377.76;;;15.97;100.00
44872;BME280;30602;51.060;17.226;2023-06-10T01:34:57;101371.34;;;16.06;100.00
44872;BME280;30602;51.060;17.226;2023-06-10T01:38:59;101371.79;;;16.01;100.00
44872;BME280;30602;51.060;17.226;2023-06-10T01:43:00;101374.48;;;16.04;100.00
44872;BME280;30602;51.060;17.226;2023-06-10T01:51:07;101367.66;;;15.99;100.00
44872;BME280;30602;51.060;17.226;2023-06-10T01:54:44;101379.50;;;16.08;100.00
44872;BME280;30602;51.060;17.226;2023-06-10T01:58:29;101381.52;;;16.06;100.00
44872;BME280;30602;51.060;17.226;2023-06-10T02:02:05;101376.47;;;16.00;100.00
44872;BME280;30602;51.060;17.226;2023-06-10T02:06:13;101377.91;;;16.06;100.00
44872;BME280;30602;51.060;17.226;2023-06-10T02:09:39;101384.00;;;15.96;100.00
44872;BME280;30602;51.060;17.226;2023-06-10T02:14:01;101378.48;;;15.98;100.00
44872;BME280;30602;51.060;17.226;2023-06-10T02:17:22;101382.70;;;15.94;100.00
44872;BME280;30602;51.060;17.226;2023-06-10T02:21:17;101382.15;;;15.91;100.00
44872;BME280;30602;51.060;17.226;2023-06-10T02:25:20;101382.47;;;15.95;100.00
44872;BME280;30602;51.060;17.226;2023-06-10T02:29:03;101379.66;;;15.93;100.00
44872;BME280;30602;51.060;17.226;2023-06-10T02:32:29;101384.15;;;15.95;100.00
44872;BME280;30602;51.060;17.226;2023-06-10T02:36:12;101382.71;;;15.95;100.00
44872;BME280;30602;51.060;17.226;2023-06-10T02:40:00;101386.59;;;15.97;100.00
44872;BME280;30602;51.060;17.226;2023-06-10T02:43:46;101380.73;;;15.94;100.00
44872;BME280;30602;51.060;17.226;2023-06-10T02:48:17;101388.67;;;15.95;100.00
44872;BME280;30602;51.060;17.226;2023-06-10T02:52:28;101381.33;;;15.94;100.00
44872;BME280;30602;51.060;17.226;2023-06-10T02:55:57;101382.94;;;15.90;100.00
44872;BME280;30602;51.060;17.226;2023-06-10T02:59:52;101394.29;;;15.95;100.00
44872;BME280;30602;51.060;17.226;2023-06-10T03:03:47;101397.65;;;15.94;100.00
44872;BME280;30602;51.060;17.226;2023-06-10T03:07:27;101398.52;;;15.99;100.00
44872;BME280;30602;51.060;17.226;2023-06-10T03:11:24;101404.51;;;16.01;100.00
44872;BME280;30602;51.060;17.226;2023-06-10T03:15:07;101408.88;;;16.07;100.00
44872;BME280;30602;51.060;17.226;2023-06-10T03:18:36;101417.56;;;16.18;100.00
44872;BME280;30602;51.060;17.226;2023-06-10T03:22:27;101413.70;;;16.14;100.00
44872;BME280;30602;51.060;17.226;2023-06-10T03:26:40;101403.45;;;16.05;100.00
44872;BME280;30602;51.060;17.226;2023-06-10T03:30:39;101420.69;;;16.15;100.00
44872;BME280;30602;51.060;17.226;2023-06-10T03:34:14;101419.59;;;16.22;100.00
44872;BME280;30602;51.060;17.226;2023-06-10T03:37:58;101419.50;;;16.20;100.00
44872;BME280;30602;51.060;17.226;2023-06-10T03:41:47;101418.27;;;16.18;100.00
44872;BME280;30602;51.060;17.226;2023-06-10T03:49:23;101425.38;;;16.23;100.00
44872;BME280;30602;51.060;17.226;2023-06-10T03:53:12;101429.11;;;16.24;100.00
44872;BME280;30602;51.060;17.226;2023-06-10T03:56:42;101431.93;;;16.25;100.00
44872;BME280;30602;51.060;17.226;2023-06-10T04:00:39;101430.91;;;16.22;100.00
44872;BME280;30602;51.060;17.226;2023-06-10T04:04:43;101416.16;;;16.13;100.00
44872;BME280;30602;51.060;17.226;2023-06-10T04:08:08;101444.68;;;16.30;100.00
44872;BME280;30602;51.060;17.226;2023-06-10T04:16:15;101439.18;;;16.37;100.00
44872;BME280;30602;51.060;17.226;2023-06-10T04:20:25;101439.80;;;16.36;100.00
44872;BME280;30602;51.060;17.226;2023-06-10T04:24:34;101442.20;;;16.38;100.00
44872;BME280;30602;51.060;17.226;2023-06-10T04:28:34;101446.82;;;16.43;100.00
44872;BME280;30602;51.060;17.226;2023-06-10T04:32:42;101446.71;;;16.44;100.00
44872;BME280;30602;51.060;17.226;2023-06-10T04:36:23;101442.46;;;16.42;100.00
44872;BME280;30602;51.060;17.226;2023-06-10T04:40:32;101444.16;;;16.48;100.00
44872;BME280;30602;51.060;17.226;2023-06-10T04:44:41;101443.15;;;16.45;100.00
44872;BME280;30602;51.060;17.226;2023-06-10T04:48:39;101448.79;;;16.52;100.00
44872;BME280;30602;51.060;17.226;2023-06-10T04:52:38;101452.68;;;16.54;100.00
44872;BME280;30602;51.060;17.226;2023-06-10T04:56:08;101449.02;;;16.59;100.00
44872;BME280;30602;51.060;17.226;2023-06-10T04:59:54;101452.97;;;16.61;100.00
44872;BME280;30602;51.060;17.226;2023-06-10T05:04:28;101456.52;;;16.67;100.00
44872;BME280;30602;51.060;17.226;2023-06-10T05:08:30;101456.55;;;16.69;100.00
44872;BME280;30602;51.060;17.226;2023-06-10T05:12:08;101457.00;;;16.68;100.00
44872;BME280;30602;51.060;17.226;2023-06-10T05:16:27;101466.59;;;16.74;100.00
44872;BME280;30602;51.060;17.226;2023-06-10T05:19:55;101464.03;;;16.82;100.00
44872;BME280;30602;51.060;17.226;2023-06-10T05:23:55;101467.17;;;16.85;100.00
44872;BME280;30602;51.060;17.226;2023-06-10T05:27:40;101476.17;;;16.99;100.00
44872;BME280;30602;51.060;17.226;2023-06-10T05:31:30;101478.45;;;17.07;100.00
44872;BME280;30602;51.060;17.226;2023-06-10T05:35:13;101479.46;;;17.19;100.00
44872;BME280;30602;51.060;17.226;2023-06-10T05:38:58;101473.66;;;17.19;100.00
44872;BME280;30602;51.060;17.226;2023-06-10T05:42:41;101476.73;;;17.32;100.00
44872;BME280;30602;51.060;17.226;2023-06-10T05:46:08;101479.26;;;17.42;100.00
44872;BME280;30602;51.060;17.226;2023-06-10T05:49:55;101489.32;;;17.47;100.00
44872;BME280;30602;51.060;17.226;2023-06-10T05:53:21;101492.03;;;17.57;100.00
44872;BME280;30602;51.060;17.226;2023-06-10T05:57:00;101492.70;;;17.62;100.00
44872;BME280;30602;51.060;17.226;2023-06-10T06:00:40;101500.79;;;17.64;100.00
44872;BME280;30602;51.060;17.226;2023-06-10T06:04:26;101498.46;;;17.63;100.00
44872;BME280;30602;51.060;17.226;2023-06-10T06:07:56;101490.18;;;17.58;100.00
44872;BME280;30602;51.060;17.226;2023-06-10T06:11:41;101504.42;;;17.71;100.00
44872;BME280;30602;51.060;17.226;2023-06-10T06:15:10;101504.52;;;17.80;100.00
44872;BME280;30602;51.060;17.226;2023-06-10T06:18:44;101506.12;;;17.81;100.00
44872;BME280;30602;51.060;17.226;2023-06-10T06:22:11;101504.06;;;17.82;100.00
44872;BME280;30602;51.060;17.226;2023-06-10T06:25:35;101503.65;;;17.94;100.00
44872;BME280;30602;51.060;17.226;2023-06-10T06:29:45;101504.70;;;18.12;100.00
44872;BME280;30602;51.060;17.226;2023-06-10T06:33:13;101506.20;;;18.22;100.00
44872;BME280;30602;51.060;17.226;2023-06-10T06:37:23;101506.17;;;18.33;100.00
44872;BME280;30602;51.060;17.226;2023-06-10T06:40:44;101513.69;;;18.26;100.00
44872;BME280;30602;51.060;17.226;2023-06-10T06:44:14;101515.06;;;18.25;100.00
44872;BME280;30602;51.060;17.226;2023-06-10T06:47:38;101517.98;;;18.32;100.00
44872;BME280;30602;51.060;17.226;2023-06-10T06:51:09;101523.11;;;18.36;100.00
44872;BME280;30602;51.060;17.226;2023-06-10T06:58:26;101532.09;;;18.44;100.00
44872;BME280;30602;51.060;17.226;2023-06-10T07:01:50;101537.39;;;18.50;100.00
44872;BME280;30602;51.060;17.226;2023-06-10T07:05:24;101544.04;;;18.52;100.00
44872;BME280;30602;51.060;17.226;2023-06-10T07:08:57;101549.62;;;18.53;100.00
44872;BME280;30602;51.060;17.226;2023-06-10T07:12:44;101551.78;;;18.53;100.00
44872;BME280;30602;51.060;17.226;2023-06-10T07:16:26;101551.44;;;18.53;100.00
44872;BME280;30602;51.060;17.226;2023-06-10T07:20:26;101550.69;;;18.57;100.00
44872;BME280;30602;51.060;17.226;2023-06-10T07:24:20;101553.76;;;18.58;100.00
44872;BME280;30602;51.060;17.226;2023-06-10T07:28:07;101551.76;;;18.75;100.00
44872;BME280;30602;51.060;17.226;2023-06-10T07:32:08;101552.37;;;18.80;100.00
44872;BME280;30602;51.060;17.226;2023-06-10T07:36:01;101555.89;;;18.86;100.00
44872;BME280;30602;51.060;17.226;2023-06-10T07:39:53;101551.56;;;18.97;100.00
44872;BME280;30602;51.060;17.226;2023-06-10T07:43:16;101557.94;;;19.13;100.00
44872;BME280;30602;51.060;17.226;2023-06-10T07:46:43;101557.79;;;19.25;100.00
44872;BME280;30602;51.060;17.226;2023-06-10T07:50:48;101557.05;;;19.40;100.00
44872;BME280;30602;51.060;17.226;2023-06-10T07:55:01;101561.96;;;19.50;99.69
44872;BME280;30602;51.060;17.226;2023-06-10T08:02:18;101561.05;;;19.81;99.05
44872;BME280;30602;51.060;17.226;2023-06-10T08:05:41;101565.77;;;20.10;99.20
44872;BME280;30602;51.060;17.226;2023-06-10T08:09:06;101557.27;;;19.94;97.41
44872;BME280;30602;51.060;17.226;2023-06-10T08:12:29;101563.46;;;20.00;97.11
44872;BME280;30602;51.060;17.226;2023-06-10T08:17:01;101567.32;;;20.24;96.37
44872;BME280;30602;51.060;17.226;2023-06-10T08:21:04;101567.32;;;20.52;95.99
44872;BME280;30602;51.060;17.226;2023-06-10T08:25:54;101564.96;;;20.44;91.77
44872;BME280;30602;51.060;17.226;2023-06-10T08:34:13;101560.66;;;21.26;90.23
44872;BME280;30602;51.060;17.226;2023-06-10T08:38:18;101560.13;;;21.46;88.16
44872;BME280;30602;51.060;17.226;2023-06-10T08:42:04;101563.42;;;21.78;88.39
44872;BME280;30602;51.060;17.226;2023-06-10T08:45:48;101571.15;;;21.90;85.95
44872;BME280;30602;51.060;17.226;2023-06-10T08:49:46;101574.71;;;22.15;86.66
44872;BME280;30602;51.060;17.226;2023-06-10T08:53:47;101581.73;;;22.16;83.42
44872;BME280;30602;51.060;17.226;2023-06-10T08:57:33;101580.89;;;22.02;80.10
44872;BME280;30602;51.060;17.226;2023-06-10T09:00:59;101584.88;;;21.94;76.54
44872;BME280;30602;51.060;17.226;2023-06-10T09:04:47;101585.46;;;21.98;82.10
44872;BME280;30602;51.060;17.226;2023-06-10T09:08:30;101581.46;;;21.98;79.44
44872;BME280;30602;51.060;17.226;2023-06-10T09:12:25;101577.38;;;22.00;79.91
44872;BME280;30602;51.060;17.226;2023-06-10T09:16:08;101579.45;;;21.94;79.95
44872;BME280;30602;51.060;17.226;2023-06-10T09:20:45;101572.03;;;22.37;79.47
44872;BME280;30602;51.060;17.226;2023-06-10T09:24:43;101572.30;;;22.61;77.75
44872;BME280;30602;51.060;17.226;2023-06-10T09:28:29;101567.94;;;22.78;76.27
44872;BME280;30602;51.060;17.226;2023-06-10T09:33:13;101564.44;;;23.00;77.55
44872;BME280;30602;51.060;17.226;2023-06-10T09:37:01;101553.43;;;23.19;74.66
44872;BME280;30602;51.060;17.226;2023-06-10T09:45:37;101551.70;;;23.49;76.15
44872;BME280;30602;51.060;17.226;2023-06-10T09:49:52;101544.66;;;23.75;76.56
44872;BME280;30602;51.060;17.226;2023-06-10T09:54:32;101555.87;;;23.52;72.51
44872;BME280;30602;51.060;17.226;2023-06-10T09:58:38;101548.14;;;23.48;77.16
44872;BME280;30602;51.060;17.226;2023-06-10T10:02:48;101543.27;;;23.64;72.62
44872;BME280;30602;51.060;17.226;2023-06-10T10:06:17;101544.75;;;23.59;69.68
44872;BME280;30602;51.060;17.226;2023-06-10T10:09:39;101538.18;;;23.89;72.20
44872;BME280;30602;51.060;17.226;2023-06-10T10:13:09;101523.05;;;23.92;68.78
44872;BME280;30602;51.060;17.226;2023-06-10T10:17:23;101515.60;;;24.24;70.24
44872;BME280;30602;51.060;17.226;2023-06-10T10:22:13;101499.31;;;24.52;67.54
44872;BME280;30602;51.060;17.226;2023-06-10T10:26:38;101500.01;;;24.87;68.04
44872;BME280;30602;51.060;17.226;2023-06-10T10:30:03;101496.80;;;25.04;64.18
44872;BME280;30602;51.060;17.226;2023-06-10T10:37:28;101498.98;;;24.52;66.19
44872;BME280;30602;51.060;17.226;2023-06-10T10:40:48;101488.14;;;24.14;68.99
44872;BME280;30602;51.060;17.226;2023-06-10T10:44:14;101487.33;;;23.78;68.58
44872;BME280;30602;51.060;17.226;2023-06-10T10:47:38;101481.93;;;23.51;69.04
44872;BME280;30602;51.060;17.226;2023-06-10T10:51:37;101475.31;;;23.20;71.54
44872;BME280;30602;51.060;17.226;2023-06-10T10:59:56;101473.70;;;23.07;69.43
44872;BME280;30602;51.060;17.226;2023-06-10T11:03:45;101473.41;;;23.04;70.93
44872;BME280;30602;51.060;17.226;2023-06-10T11:07:53;101488.39;;;23.05;68.54
44872;BME280;30602;51.060;17.226;2023-06-10T11:11:31;101484.56;;;23.22;66.49
44872;BME280;30602;51.060;17.226;2023-06-10T11:15:33;101472.14;;;23.17;70.90
44872;BME280;30602;51.060;17.226;2023-06-10T11:18:57;101473.61;;;23.01;71.18
44872;BME280;30602;51.060;17.226;2023-06-10T11:30:19;101476.07;;;22.78;76.46
44872;BME280;30602;51.060;17.226;2023-06-10T11:33:52;101480.41;;;22.77;78.25
44872;BME280;30602;51.060;17.226;2023-06-10T11:37:18;101479.53;;;23.17;76.18
44872;BME280;30602;51.060;17.226;2023-06-10T11:40:50;101481.06;;;23.12;74.47
44872;BME280;30602;51.060;17.226;2023-06-10T11:44:51;101488.93;;;22.93;71.16
44872;BME280;30602;51.060;17.226;2023-06-10T11:48:14;101489.86;;;22.74;72.96
44872;BME280;30602;51.060;17.226;2023-06-10T11:51:41;101488.11;;;22.76;74.37
44872;BME280;30602;51.060;17.226;2023-06-10T11:56:25;101485.32;;;22.73;77.88
44872;BME280;30602;51.060;17.226;2023-06-10T11:59:52;101482.11;;;23.01;77.81
44872;BME280;30602;51.060;17.226;2023-06-10T12:03:22;101482.95;;;23.09;79.37
44872;BME280;30602;51.060;17.226;2023-06-10T12:07:39;101483.00;;;23.08;78.68
44872;BME280;30602;51.060;17.226;2023-06-10T12:15:24;101467.54;;;23.37;73.44
44872;BME280;30602;51.060;17.226;2023-06-10T12:19:54;101465.73;;;23.65;75.05
44872;BME280;30602;51.060;17.226;2023-06-10T12:23:19;101459.23;;;23.90;71.13
44872;BME280;30602;51.060;17.226;2023-06-10T12:27:23;101469.67;;;24.04;69.32
44872;BME280;30602;51.060;17.226;2023-06-10T12:31:12;101457.61;;;23.83;63.45
44872;BME280;30602;51.060;17.226;2023-06-10T12:34:38;101449.45;;;24.18;68.74
44872;BME280;30602;51.060;17.226;2023-06-10T12:38:04;101440.48;;;24.45;57.37
44872;BME280;30602;51.060;17.226;2023-06-10T12:41:59;101437.52;;;24.65;57.11
44872;BME280;30602;51.060;17.226;2023-06-10T12:45:43;101437.42;;;24.80;51.07
44872;BME280;30602;51.060;17.226;2023-06-10T12:49:39;101439.54;;;25.05;48.87
44872;BME280;30602;51.060;17.226;2023-06-10T12:54:07;101427.80;;;25.24;46.28
44872;BME280;30602;51.060;17.226;2023-06-10T12:58:01;101427.86;;;25.44;43.01
44872;BME280;30602;51.060;17.226;2023-06-10T13:01:55;101427.68;;;25.70;42.65
44872;BME280;30602;51.060;17.226;2023-06-10T13:05:36;101429.13;;;25.73;39.10
44872;BME280;30602;51.060;17.226;2023-06-10T13:09:11;101425.96;;;25.70;38.34
44872;BME280;30602;51.060;17.226;2023-06-10T13:12:32;101427.44;;;25.70;40.19
44872;BME280;30602;51.060;17.226;2023-06-10T13:16:44;101416.85;;;25.41;39.13
44872;BME280;30602;51.060;17.226;2023-06-10T13:20:49;101422.17;;;25.64;40.14
44872;BME280;30602;51.060;17.226;2023-06-10T13:24:25;101421.41;;;25.73;37.95
44872;BME280;30602;51.060;17.226;2023-06-10T13:28:01;101428.80;;;25.73;38.21
44872;BME280;30602;51.060;17.226;2023-06-10T13:58:20;101433.41;;;25.30;34.80
44872;BME280;30602;51.060;17.226;2023-06-10T14:02:03;101435.38;;;25.51;33.66
44872;BME280;30602;51.060;17.226;2023-06-10T14:06:08;101432.70;;;25.64;34.42
44872;BME280;30602;51.060;17.226;2023-06-10T14:10:31;101439.34;;;25.71;34.15
44872;BME280;30602;51.060;17.226;2023-06-10T14:13:53;101432.50;;;25.65;32.24
44872;BME280;30602;51.060;17.226;2023-06-10T14:17:21;101439.63;;;25.57;30.20
44872;BME280;30602;51.060;17.226;2023-06-10T14:20:44;101448.44;;;25.54;28.23
44872;BME280;30602;51.060;17.226;2023-06-10T14:24:25;101436.00;;;25.62;28.84
44872;BME280;30602;51.060;17.226;2023-06-10T14:27:48;101439.30;;;25.83;30.78
44872;BME280;30602;51.060;17.226;2023-06-10T14:31:41;101438.22;;;25.84;29.82
44872;BME280;30602;51.060;17.226;2023-06-10T14:35:44;101425.75;;;25.94;31.76
44872;BME280;30602;51.060;17.226;2023-06-10T14:39:18;101428.16;;;25.94;29.06
44872;BME280;30602;51.060;17.226;2023-06-10T14:42:44;101427.01;;;25.85;29.02
44872;BME280;30602;51.060;17.226;2023-06-10T14:46:37;101424.61;;;25.64;29.23
44872;BME280;30602;51.060;17.226;2023-06-10T14:50:42;101428.26;;;25.58;31.29
44872;BME280;30602;51.060;17.226;2023-06-10T14:54:53;101430.42;;;25.66;30.71
44872;BME280;30602;51.060;17.226;2023-06-10T14:58:53;101429.60;;;25.79;31.37
44872;BME280;30602;51.060;17.226;2023-06-10T15:06:57;101433.80;;;25.74;29.56
44872;BME280;30602;51.060;17.226;2023-06-10T15:10:50;101431.25;;;25.67;30.49
44872;BME280;30602;51.060;17.226;2023-06-10T15:14:25;101437.29;;;25.74;32.23
44872;BME280;30602;51.060;17.226;2023-06-10T15:18:23;101438.76;;;25.75;30.89
44872;BME280;30602;51.060;17.226;2023-06-10T15:21:48;101440.48;;;25.74;30.14
44872;BME280;30602;51.060;17.226;2023-06-10T15:26:26;101441.50;;;25.74;30.61
44872;BME280;30602;51.060;17.226;2023-06-10T15:30:32;101444.20;;;25.78;31.67
44872;BME280;30602;51.060;17.226;2023-06-10T15:33:56;101443.37;;;25.77;33.66
44872;BME280;30602;51.060;17.226;2023-06-10T15:37:40;101445.66;;;25.82;32.26
44872;BME280;30602;51.060;17.226;2023-06-10T15:41:34;101446.33;;;25.68;32.54
44872;BME280;30602;51.060;17.226;2023-06-10T15:45:50;101449.46;;;25.79;32.54
44872;BME280;30602;51.060;17.226;2023-06-10T15:50:18;101448.52;;;25.81;31.96
44872;BME280;30602;51.060;17.226;2023-06-10T15:54:18;101448.34;;;25.66;31.91
44872;BME280;30602;51.060;17.226;2023-06-10T15:59:16;101442.64;;;25.66;30.79
44872;BME280;30602;51.060;17.226;2023-06-10T16:02:58;101449.71;;;25.71;30.58
44872;BME280;30602;51.060;17.226;2023-06-10T16:07:06;101452.60;;;25.57;30.37
44872;BME280;30602;51.060;17.226;2023-06-10T16:10:29;101453.15;;;25.52;29.57
44872;BME280;30602;51.060;17.226;2023-06-10T16:14:23;101453.88;;;25.45;29.37
44872;BME280;30602;51.060;17.226;2023-06-10T16:23:02;101452.02;;;25.47;29.15
44872;BME280;30602;51.060;17.226;2023-06-10T16:26:25;101451.09;;;25.47;30.60
44872;BME280;30602;51.060;17.226;2023-06-10T16:30:32;101452.66;;;25.69;29.41
44872;BME280;30602;51.060;17.226;2023-06-10T16:38:53;101447.52;;;25.94;30.12
44872;BME280;30602;51.060;17.226;2023-06-10T16:42:50;101449.70;;;25.57;29.69
44872;BME280;30602;51.060;17.226;2023-06-10T16:46:57;101442.67;;;25.61;29.74
44872;BME280;30602;51.060;17.226;2023-06-10T16:51:23;101456.12;;;25.68;28.45
44872;BME280;30602;51.060;17.226;2023-06-10T16:54:45;101451.13;;;25.46;28.38
44872;BME280;30602;51.060;17.226;2023-06-10T16:58:08;101457.72;;;25.45;29.98
44872;BME280;30602;51.060;17.226;2023-06-10T17:01:49;101466.05;;;25.23;30.62
44872;BME280;30602;51.060;17.226;2023-06-10T17:05:53;101468.67;;;25.09;30.54
44872;BME280;30602;51.060;17.226;2023-06-10T17:09:13;101471.32;;;24.78;31.16
44872;BME280;30602;51.060;17.226;2023-06-10T17:13:09;101475.12;;;24.75;30.62
44872;BME280;30602;51.060;17.226;2023-06-10T17:17:01;101478.77;;;24.55;32.09
44872;BME280;30602;51.060;17.226;2023-06-10T17:21:03;101483.12;;;24.48;33.40
44872;BME280;30602;51.060;17.226;2023-06-10T17:24:42;101488.23;;;24.35;34.65
44872;BME280;30602;51.060;17.226;2023-06-10T17:28:24;101490.22;;;24.32;35.39
44872;BME280;30602;51.060;17.226;2023-06-10T17:31:59;101495.11;;;24.23;34.92
44872;BME280;30602;51.060;17.226;2023-06-10T17:36:13;101500.84;;;24.21;36.20
44872;BME280;30602;51.060;17.226;2023-06-10T17:40:12;101506.86;;;24.22;36.08
44872;BME280;30602;51.060;17.226;2023-06-10T17:44:24;101511.26;;;24.22;35.94
44872;BME280;30602;51.060;17.226;2023-06-10T17:48:49;101518.88;;;24.02;35.78
44872;BME280;30602;51.060;17.226;2023-06-10T17:52:53;101519.73;;;23.89;37.61
44872;BME280;30602;51.060;17.226;2023-06-10T17:56:45;101514.68;;;23.52;38.12
44872;BME280;30602;51.060;17.226;2023-06-10T18:00:07;101528.36;;;23.47;37.67
44872;BME280;30602;51.060;17.226;2023-06-10T18:03:26;101528.93;;;23.30;37.89
44872;BME280;30602;51.060;17.226;2023-06-10T18:07:06;101537.17;;;23.12;37.50
44872;BME280;30602;51.060;17.226;2023-06-10T18:10:49;101539.20;;;23.00;38.33
44872;BME280;30602;51.060;17.226;2023-06-10T18:14:07;101538.73;;;22.87;40.38
44872;BME280;30602;51.060;17.226;2023-06-10T18:21:58;101548.80;;;22.47;42.14
44872;BME280;30602;51.060;17.226;2023-06-10T18:25:21;101549.20;;;22.15;42.86
44872;BME280;30602;51.060;17.226;2023-06-10T18:29:15;101554.66;;;21.99;44.16
44872;BME280;30602;51.060;17.226;2023-06-10T18:36:30;101562.30;;;21.47;47.41
44872;BME280;30602;51.060;17.226;2023-06-10T18:40:10;101565.94;;;21.12;48.79
44872;BME280;30602;51.060;17.226;2023-06-10T18:43:31;101568.80;;;20.73;51.18
44872;BME280;30602;51.060;17.226;2023-06-10T18:47:14;101571.88;;;20.75;50.65
44872;BME280;30602;51.060;17.226;2023-06-10T18:50:56;101575.50;;;20.64;50.00
44872;BME280;30602;51.060;17.226;2023-06-10T18:54:39;101579.77;;;20.59;50.34
44872;BME280;30602;51.060;17.226;2023-06-10T18:58:19;101572.38;;;20.28;50.86
44872;BME280;30602;51.060;17.226;2023-06-10T19:02:01;101586.52;;;20.29;51.41
44872;BME280;30602;51.060;17.226;2023-06-10T19:05:55;101594.30;;;20.05;51.91
44872;BME280;30602;51.060;17.226;2023-06-10T20:14:20;101657.03;;;18.94;50.33
44872;BME280;30602;51.060;17.226;2023-06-10T20:17:41;101658.62;;;18.57;51.46
44872;BME280;30602;51.060;17.226;2023-06-10T20:21:37;101658.30;;;18.51;50.98
44872;BME280;30602;51.060;17.226;2023-06-10T20:25:02;101662.65;;;18.51;51.73
44872;BME280;30602;51.060;17.226;2023-06-10T20:28:21;101664.94;;;18.39;51.77
44872;BME280;30602;51.060;17.226;2023-06-10T20:31:45;101670.43;;;18.28;52.61
44872;BME280;30602;51.060;17.226;2023-06-10T20:35:26;101677.35;;;18.03;55.02
44872;BME280;30602;51.060;17.226;2023-06-10T20:39:38;101675.73;;;17.85;57.83
44872;BME280;30602;51.060;17.226;2023-06-10T20:43:22;101691.76;;;17.46;59.38
44872;BME280;30602;51.060;17.226;2023-06-10T20:47:08;101695.73;;;17.49;59.21
44872;BME280;30602;51.060;17.226;2023-06-10T20:50:49;101687.98;;;17.30;57.18
44872;BME280;30602;51.060;17.226;2023-06-10T20:54:31;101686.88;;;17.25;58.41
44872;BME280;30602;51.060;17.226;2023-06-10T20:57:49;101688.76;;;17.08;58.03
44872;BME280;30602;51.060;17.226;2023-06-10T21:01:36;101692.00;;;17.15;57.23
44872;BME280;30602;51.060;17.226;2023-06-10T21:05:19;101692.54;;;17.02;57.57
44872;BME280;30602;51.060;17.226;2023-06-10T21:08:41;101692.62;;;17.12;58.92
44872;BME280;30602;51.060;17.226;2023-06-10T21:12:47;101692.67;;;16.88;58.29
44872;BME280;30602;51.060;17.226;2023-06-10T21:16:07;101694.81;;;16.78;58.38
44872;BME280;30602;51.060;17.226;2023-06-10T21:20:02;101693.98;;;16.71;58.57
44872;BME280;30602;51.060;17.226;2023-06-10T21:23:44;101696.97;;;16.70;60.03
44872;BME280;30602;51.060;17.226;2023-06-10T21:27:30;101700.30;;;16.46;61.15
44872;BME280;30602;51.060;17.226;2023-06-10T21:31:29;101699.39;;;16.39;60.75
44872;BME280;30602;51.060;17.226;2023-06-10T21:35:23;101698.27;;;16.40;60.87
44872;BME280;30602;51.060;17.226;2023-06-10T21:39:05;101698.94;;;16.25;63.35
44872;BME280;30602;51.060;17.226;2023-06-10T21:42:29;101701.94;;;16.00;63.25
44872;BME280;30602;51.060;17.226;2023-06-10T21:45:53;101706.33;;;15.92;62.93
44872;BME280;30602;51.060;17.226;2023-06-10T21:49:46;101706.99;;;15.81;62.18
44872;BME280;30602;51.060;17.226;2023-06-10T21:53:52;101708.84;;;15.63;63.70
44872;BME280;30602;51.060;17.226;2023-06-10T21:57:26;101711.22;;;15.68;62.18
44872;BME280;30602;51.060;17.226;2023-06-10T22:01:09;101709.71;;;15.68;62.46
44872;BME280;30602;51.060;17.226;2023-06-10T22:05:37;101707.36;;;15.58;63.02
44872;BME280;30602;51.060;17.226;2023-06-10T22:09:10;101713.98;;;15.49;64.19
44872;BME280;30602;51.060;17.226;2023-06-10T22:12:54;101709.82;;;15.37;64.35
44872;BME280;30602;51.060;17.226;2023-06-10T22:16:31;101708.39;;;15.29;64.00
44872;BME280;30602;51.060;17.226;2023-06-10T22:19:58;101705.28;;;15.24;65.09